ADDS METAR Data INFO
IDs: Format: Raw Decoded Include TAF

Data at: 0929 UTC 11 Dec 2017

KEIR 110915Z AUTO 36008KT 10SM CLR 15/04 A3035 RMK A01
KEIR 110855Z AUTO 35010KT 10SM CLR 15/03 A3035 RMK A01
KEIR 110835Z AUTO 01009KT 10SM CLR 15/03 A3035 RMK A01
KEIR 110815Z AUTO 36010KT 10SM CLR 15/02 A3034 RMK A01
KEIR 110755Z AUTO 36009KT 10SM CLR 15/05 A3034 RMK A01
KEIR 110735Z AUTO 36010KT 10SM CLR 15/04 A3034 RMK A01
KEIR 110715Z AUTO 35010KT 10SM CLR 15/04 A3034 RMK A01
KEIR 110655Z AUTO 35011KT 10SM CLR 15/05 A3035 RMK A01
KEIR 110635Z AUTO 35010KT 10SM CLR 15/05 A3035 RMK A01
KEIR 110615Z AUTO 35010KT 10SM CLR 15/04 A3036 RMK A01
KEIR 110555Z AUTO 35010KT 10SM CLR 15/04 A3036 RMK A01
KEIR 110535Z AUTO 34010KT 10SM CLR 15/04 A3037 RMK A01
KEIR 110515Z AUTO 34010KT 10SM CLR 15/04 A3038 RMK A01
KEIR 110455Z AUTO 34010KT 10SM CLR 15/03 A3039 RMK A01
KEIR 110435Z AUTO 34010KT 10SM CLR 15/05 A3039 RMK A01
KEIR 110415Z AUTO 33010KT 10SM CLR 15/05 A3039 RMK A01
KEIR 110355Z AUTO 34009KT 10SM CLR 15/06 A3039 RMK A01
KEIR 110335Z AUTO 33009KT 10SM CLR 15/06 A3039 RMK A01
KEIR 110315Z AUTO 32010KT 10SM CLR 15/06 A3039 RMK A01
KEIR 110255Z AUTO 32009KT 10SM CLR 15/06 A3040 RMK A01
KEIR 110235Z AUTO 32008KT 10SM CLR 15/06 A3040 RMK A01
KEIR 110215Z AUTO 32011KT 10SM CLR 15/06 A3040 RMK A01
KEIR 110155Z AUTO 31009KT 10SM CLR 15/06 A3039 RMK A01
KEIR 110135Z AUTO 31009KT 10SM CLR 15/06 A3039 RMK A01
KEIR 110115Z AUTO 32009KT 10SM CLR 15/06 A3039 RMK A01
KEIR 110055Z AUTO 32009KT 10SM CLR 14/07 A3039 RMK A01
KEIR 110035Z AUTO 32007KT 10SM CLR 14/06 A3039 RMK A01
KEIR 110015Z AUTO 33004KT 10SM CLR 14/07 A3038 RMK A01
KEIR 102355Z AUTO 02003KT 10SM CLR 14/07 A3038 RMK A01
KEIR 102335Z AUTO 03004KT 10SM CLR 13/06 A3038 RMK A01
KEIR 102315Z AUTO 01004KT 10SM CLR 14/06 A3038 RMK A01
KEIR 102255Z AUTO 03004KT 10SM CLR 14/06 A3038 RMK A01
KEIR 102235Z AUTO 03004KT 10SM CLR 14/05 A3038 RMK A01
KEIR 102215Z AUTO 05004KT 10SM CLR 13/05 A3038 RMK A01
KEIR 102155Z AUTO 00000KT 10SM CLR 14/04 A3038 RMK A01
KEIR 102135Z AUTO 03004KT CLR 13/04 A3038 RMK A01
KEIR 102115Z AUTO 00000KT 10SM 13/03 A3038 RMK A01
KEIR 102035Z AUTO 00000KT CLR 13/03 A3038 RMK A01
KEIR 102015Z AUTO 00000KT 10SM CLR 14/03 A3039 RMK A01
KEIR 101955Z AUTO 00000KT 10SM CLR 14/02 A3039 RMK A01
KEIR 101935Z AUTO 00000KT 10SM CLR 14/02 A3039 RMK A01
KEIR 101915Z AUTO 00000KT 10SM CLR 13/03 A3039 RMK A01
KEIR 101855Z AUTO 00000KT 10SM CLR 13/04 A3040 RMK A01
KEIR 101835Z AUTO 00000KT 10SM CLR 13/03 A3040 RMK A01
KEIR 101815Z AUTO 08004KT 10SM CLR 13/04 A3041 RMK A01
KEIR 101755Z AUTO 00000KT 10SM CLR 13/03 A3042 RMK A01
KEIR 101735Z AUTO 07004KT 10SM CLR 13/04 A3043 RMK A01
KEIR 101715Z AUTO 06005KT 10SM CLR 13/04 A3044 RMK A01
KEIR 101655Z AUTO 06005KT 10SM CLR 13/04 A3044 RMK A01
KEIR 101635Z AUTO 06006KT 10SM CLR 12/04 A3044 RMK A01
KEIR 101615Z AUTO 06007KT 10SM CLR 12/05 A3044 RMK A01
KEIR 101555Z AUTO 07007KT 10SM CLR 12/06 A3044 RMK A01
KEIR 101535Z AUTO 07006KT 10SM CLR 12/05 A3044 RMK A01
KEIR 101515Z AUTO 07006KT 10SM CLR 12/04 A3044 RMK A01
KEIR 101455Z AUTO 07006KT 10SM CLR 12/04 A3043 RMK A01
KEIR 101435Z AUTO 07007KT 10SM CLR 12/04 A3042 RMK A01
KEIR 101415Z AUTO 07007KT 10SM CLR 12/03 A3042 RMK A01
KEIR 101355Z AUTO 07006KT 10SM CLR 12/03 A3041 RMK A01
KEIR 101335Z AUTO 07007KT 10SM CLR 12/03 A3041 RMK A01
KEIR 101315Z AUTO 07008KT 10SM CLR 12/03 A3039 RMK A01
KEIR 101255Z AUTO 07008KT 10SM CLR 12/04 A3039 RMK A01
KEIR 101235Z AUTO 07008KT 10SM CLR 12/04 A3038 RMK A01
KEIR 101215Z AUTO 06009KT 10SM CLR 12/04 A3038 RMK A01
KEIR 101155Z AUTO 05010KT 10SM CLR 12/04 A3037 RMK A01
KEIR 101135Z AUTO 05009KT 10SM CLR 12/04 A3037 RMK A01
KEIR 101115Z AUTO 05010KT 10SM CLR 12/04 A3037 RMK A01
KEIR 101055Z AUTO 06010KT 10SM CLR 12/04 A3035 RMK A01
KEIR 101035Z AUTO 06011KT 10SM CLR 13/04 A3035 RMK A01
KEIR 101015Z AUTO 06011KT CLR 13/04 A3035 RMK A01
KEIR 100955Z AUTO 06011KT 10SM CLR 13/05 A3036 RMK A01
KEIR 100935Z AUTO 05011KT 10SM CLR 13/04 A3036 RMK A01
KEIR 100915Z AUTO 05012KT 10SM CLR 13/03 A3036 RMK A01
KEIR 100855Z AUTO 05010KT 10SM CLR 13/05 A3036 RMK A01
KEIR 100835Z AUTO 06011KT 10SM CLR 13/05 A3035 RMK A01
KEIR 100815Z AUTO 03013KT 10SM CLR 14/02 A3035 RMK A01
KEIR 100755Z AUTO 03011KT 10SM CLR 14/03 A3036 RMK A01
KEIR 100735Z AUTO 03013KT 10SM CLR 14/02 A3035 RMK A01
KEIR 100715Z AUTO 01012KT 10SM CLR 14/04 A3035 RMK A01
KEIR 100655Z AUTO 02014KT 10SM CLR 14/03 A3035 RMK A01
KEIR 100635Z AUTO 01015KT 10SM CLR 14/04 A3035 RMK A01
KEIR 100615Z AUTO 02015KT 10SM CLR 14/04 A3036 RMK A01
KEIR 100555Z AUTO 01012G18KT 10SM CLR 14/03 A3035 RMK A01
KEIR 100535Z AUTO 02013KT 10SM CLR 14/04 A3035 RMK A01
KEIR 100515Z AUTO 35013KT 10SM CLR 14/03 A3036 RMK A01
KEIR 100455Z AUTO 01013KT 10SM FEW034 14/03 A3035 RMK A01
KEIR 100435Z AUTO 01015KT 10SM CLR 14/03 A3035 RMK A01
KEIR 100415Z AUTO 35014KT 10SM CLR 14/03 A3035 RMK A01
KEIR 100355Z AUTO 35013KT 10SM CLR 14/03 A3034 RMK A01
KEIR 100335Z AUTO 36016KT 10SM CLR 14/03 A3033 RMK A01
KEIR 100315Z AUTO 36016KT 10SM CLR 14/03 A3032 RMK A01
KEIR 100255Z AUTO 36015KT 10SM CLR 14/03 A3032 RMK A01
KEIR 100235Z AUTO 36015G20KT 10SM CLR 14/03 A3031 RMK A01
KEIR 100215Z AUTO 36015KT 10SM CLR 14/03 A3031 RMK A01
KEIR 100155Z AUTO 35014KT 10SM FEW034 14/03 A3030 RMK A01
KEIR 100135Z AUTO 36014KT 10SM FEW035 14/03 A3029 RMK A01
KEIR 100115Z AUTO 35014G21KT 10SM CLR 14/02 A3028 RMK A01
KEIR 100055Z AUTO 35015KT 10SM CLR 14/03 A3027 RMK A01
KEIR 100035Z AUTO 35016KT 10SM CLR 13/02 A3026 RMK A01
KEIR 100015Z AUTO 35015KT CLR 13/02 A3026 RMK A01
KEIR 092355Z AUTO 34014G19KT 10SM CLR 13/03 A3025 RMK A01
KEIR 092335Z AUTO 33014KT 10SM CLR 13/03 A3025 RMK A01
KEIR 092315Z AUTO 33014KT 10SM CLR 13/02 A3025 RMK A01
KEIR 092255Z AUTO 34010G17KT 10SM CLR 13/02 A3024 RMK A01
KEIR 092235Z AUTO 32011KT 10SM CLR 12/02 A3024 RMK A01
KEIR 092215Z AUTO 35013KT 10SM CLR 12/02 A3024 RMK A01
KEIR 092155Z AUTO 36014KT 10SM CLR 12/02 A3023 RMK A01
KEIR 092135Z AUTO 35010G17KT 10SM CLR 12/01 A3023 RMK A01